createdAt,value
2022-12-09T00:00:07.749Z,52.13
2022-12-09T00:02:34.941Z,43.03
2022-12-09T00:05:02.318Z,42.17
2022-12-09T00:07:29.522Z,45.90
2022-12-09T00:09:57.025Z,47.28
2022-12-09T00:12:23.911Z,40.28
2022-12-09T00:14:50.822Z,36.55
2022-12-09T00:17:18.008Z,51.65
2022-12-09T00:19:44.908Z,45.40
2022-12-09T00:22:11.881Z,44.35
2022-12-09T00:24:38.723Z,41.80
2022-12-09T00:27:05.818Z,43.10
2022-12-09T00:29:32.814Z,42.45
2022-12-09T00:31:59.911Z,43.88
2022-12-09T00:34:27.034Z,46.15
2022-12-09T00:36:54.063Z,42.80
2022-12-09T00:39:20.964Z,40.33
2022-12-09T00:41:49.205Z,34.47
2022-12-09T00:44:16.366Z,38.78
2022-12-09T00:46:43.443Z,31.58
2022-12-09T00:49:11.525Z,33.95
2022-12-09T00:51:38.615Z,26.77
2022-12-09T00:54:05.646Z,30.92
2022-12-09T00:56:33.234Z,26.55
2022-12-09T00:59:00.328Z,28.92
2022-12-09T01:01:28.484Z,28.33
2022-12-09T01:03:56.126Z,32.63
2022-12-09T01:06:25.171Z,28.67
2022-12-09T01:08:52.926Z,35.67
2022-12-09T01:11:26.455Z,40.08
2022-12-09T01:13:53.708Z,38.28
2022-12-09T01:16:25.052Z,40.30
2022-12-09T01:18:56.509Z,38.63
2022-12-09T01:21:38.403Z,40.42
2022-12-09T01:24:18.754Z,45.50
2022-12-09T01:26:56.854Z,57.30
2022-12-09T01:30:09.647Z,58.30
2022-12-09T01:32:40.192Z,58.10
2022-12-09T01:35:26.444Z,42.72
2022-12-09T01:37:53.279Z,41.47
2022-12-09T01:40:24.291Z,39.22
2022-12-09T01:43:06.937Z,37.05
2022-12-09T01:45:47.872Z,39.58
2022-12-09T01:48:17.439Z,37.70
2022-12-09T01:50:49.720Z,51.75
2022-12-09T01:53:19.571Z,35.80
2022-12-09T01:55:46.760Z,38.00
2022-12-09T01:58:14.877Z,38.78
2022-12-09T02:00:45.781Z,43.80
2022-12-09T02:03:13.261Z,46.38
2022-12-09T02:05:52.832Z,37.05
2022-12-09T02:08:20.144Z,39.55
2022-12-09T02:11:29.039Z,95.10
2022-12-09T02:14:05.744Z,42.70
2022-12-09T02:16:42.050Z,55.60
2022-12-09T02:19:15.054Z,56.70
2022-12-09T02:24:35.362Z,40.88
2022-12-09T02:27:17.074Z,35.05
2022-12-09T02:30:08.853Z,33.42
2022-12-09T02:32:39.234Z,33.35
2022-12-09T02:35:14.796Z,41.83
2022-12-09T02:38:01.104Z,189.48
2022-12-09T02:40:52.524Z,32.10
2022-12-09T02:43:24.410Z,41.10
2022-12-09T02:45:52.326Z,59.75
2022-12-09T02:48:25.665Z,74.15
2022-12-09T02:50:53.662Z,137.57
2022-12-09T02:53:21.591Z,156.50
2022-12-09T02:55:50.472Z,144.52
2022-12-09T02:58:17.880Z,92.95
2022-12-09T03:00:46.424Z,41.30
2022-12-09T03:03:17.743Z,41.45
2022-12-09T03:05:47.932Z,40.22
2022-12-09T03:08:17.755Z,42.70
2022-12-09T03:10:57.207Z,38.22
2022-12-09T03:13:47.398Z,47.20
2022-12-09T03:16:37.525Z,44.53
2022-12-09T03:19:16.870Z,41.53
2022-12-09T03:21:49.249Z,38.15
2022-12-09T03:24:23.236Z,29.10
2022-12-09T03:26:51.801Z,42.35
2022-12-09T03:29:22.066Z,45.55
2022-12-09T03:31:52.490Z,58.83
2022-12-09T03:34:26.923Z,52.50
2022-12-09T03:36:54.667Z,58.35
2022-12-09T03:39:26.253Z,49.03
2022-12-09T03:41:59.038Z,53.83
2022-12-09T03:44:42.612Z,61.88
2022-12-09T03:47:10.648Z,58.00
2022-12-09T03:49:39.643Z,52.38
2022-12-09T03:52:25.273Z,58.13
2022-12-09T03:55:01.073Z,52.33
2022-12-09T03:57:28.115Z,48.63
2022-12-09T03:59:58.691Z,45.58
2022-12-09T04:02:25.802Z,53.38
2022-12-09T04:04:53.384Z,47.25
2022-12-09T04:07:20.294Z,49.38
2022-12-09T04:09:47.271Z,48.42
2022-12-09T04:12:14.154Z,55.63
2022-12-09T04:14:41.127Z,52.20
2022-12-09T04:17:08.375Z,47.50
2022-12-09T04:19:35.386Z,46.88
2022-12-09T04:22:02.454Z,52.70
2022-12-09T04:24:29.449Z,49.47
2022-12-09T04:26:56.477Z,49.42
2022-12-09T04:29:23.296Z,50.75
2022-12-09T04:31:52.491Z,49.50
2022-12-09T04:34:19.342Z,53.95
2022-12-09T04:36:46.224Z,52.17
2022-12-09T04:39:13.387Z,48.05
2022-12-09T04:41:40.537Z,50.90
2022-12-09T04:44:07.358Z,54.63
2022-12-09T04:46:34.379Z,47.28
2022-12-09T04:49:01.283Z,46.08
2022-12-09T04:51:29.649Z,55.70
2022-12-09T04:53:59.948Z,51.03
2022-12-09T04:56:27.252Z,45.55
2022-12-09T04:58:54.253Z,56.25
2022-12-09T05:01:26.580Z,57.03
2022-12-09T05:03:56.994Z,53.38
2022-12-09T05:06:24.425Z,57.03
2022-12-09T05:08:51.532Z,70.53
2022-12-09T05:11:20.633Z,57.65
2022-12-09T05:13:48.091Z,50.72
2022-12-09T05:16:17.430Z,55.70
2022-12-09T05:18:47.517Z,60.42
2022-12-09T05:21:18.599Z,54.83
2022-12-09T05:23:50.445Z,86.68
2022-12-09T05:26:21.376Z,86.85
2022-12-09T05:28:49.494Z,87.70
2022-12-09T05:31:20.396Z,74.38
2022-12-09T05:33:49.603Z,64.78
2022-12-09T05:36:19.539Z,60.55
2022-12-09T05:38:46.995Z,55.78
2022-12-09T05:41:14.172Z,52.03
2022-12-09T05:43:41.699Z,56.75
2022-12-09T05:46:09.410Z,53.08
2022-12-09T05:48:37.356Z,63.95
2022-12-09T05:51:18.289Z,59.22
2022-12-09T05:53:45.653Z,54.88
2022-12-09T05:56:16.960Z,61.30
2022-12-09T05:58:44.405Z,58.35
2022-12-09T06:01:11.965Z,55.25
2022-12-09T06:03:39.057Z,56.65
2022-12-09T06:06:12.574Z,54.20
2022-12-09T06:08:41.159Z,57.25
2022-12-09T06:11:19.849Z,58.05
2022-12-09T06:13:48.426Z,54.85
2022-12-09T06:16:19.778Z,63.00
2022-12-09T06:18:47.582Z,63.35
2022-12-09T06:21:19.156Z,58.50
2022-12-09T06:23:46.954Z,58.63
2022-12-09T06:26:20.301Z,60.53
2022-12-09T06:28:48.136Z,57.33
2022-12-09T06:31:16.375Z,57.20
2022-12-09T06:34:00.025Z,58.63
2022-12-09T06:36:29.386Z,62.25
2022-12-09T06:38:58.821Z,53.88
2022-12-09T06:41:27.745Z,59.63
2022-12-09T06:43:57.877Z,57.13
2022-12-09T06:46:26.389Z,53.85
2022-12-09T06:48:54.914Z,57.65
2022-12-09T06:51:23.671Z,55.75
2022-12-09T06:53:50.923Z,54.20
2022-12-09T06:56:18.495Z,58.28
2022-12-09T06:58:46.939Z,61.60
2022-12-09T07:01:16.508Z,46.58
2022-12-09T07:03:45.703Z,45.40
2022-12-09T07:06:26.104Z,49.38
2022-12-09T07:08:54.083Z,44.13
2022-12-09T07:11:21.152Z,50.90
2022-12-09T07:13:49.157Z,42.55
2022-12-09T07:16:16.400Z,58.88
2022-12-09T07:18:43.941Z,56.35
2022-12-09T07:21:13.943Z,48.00
2022-12-09T07:23:41.505Z,53.47
2022-12-09T07:26:08.777Z,49.03
2022-12-09T07:28:37.638Z,52.20
2022-12-09T07:31:05.190Z,47.20
2022-12-09T07:33:32.664Z,50.30
2022-12-09T07:36:00.221Z,47.90
2022-12-09T07:38:27.771Z,45.65
2022-12-09T07:40:54.924Z,49.85
2022-12-09T07:43:22.440Z,52.22
2022-12-09T07:45:50.008Z,54.53
2022-12-09T07:48:17.101Z,56.55
2022-12-09T07:50:44.750Z,67.10
2022-12-09T07:53:11.760Z,81.80
2022-12-09T07:55:38.658Z,116.63
2022-12-09T07:58:05.902Z,90.78
2022-12-09T08:00:32.734Z,72.85
2022-12-09T08:03:00.052Z,68.35
2022-12-09T08:05:27.457Z,59.70
2022-12-09T08:07:54.883Z,62.25
2022-12-09T08:10:22.194Z,67.95
2022-12-09T08:12:49.995Z,64.85
2022-12-09T08:15:19.505Z,64.93
2022-12-09T08:17:46.613Z,63.25
2022-12-09T08:20:15.181Z,65.82
2022-12-09T08:22:42.657Z,66.22
2022-12-09T08:25:10.987Z,63.33
2022-12-09T08:27:38.270Z,56.65
2022-12-09T08:30:06.873Z,60.30
2022-12-09T08:32:34.328Z,59.28
2022-12-09T08:35:01.888Z,60.13
2022-12-09T08:37:29.235Z,52.45
2022-12-09T08:39:56.511Z,59.47
2022-12-09T08:42:23.664Z,50.58
2022-12-09T08:44:51.828Z,52.65
2022-12-09T08:47:22.139Z,47.58
2022-12-09T08:49:49.302Z,52.38
2022-12-09T08:52:16.360Z,45.40
2022-12-09T08:54:43.706Z,48.75
2022-12-09T08:57:10.704Z,50.55
2022-12-09T08:59:43.429Z,52.15
2022-12-09T09:02:12.531Z,48.08
2022-12-09T09:04:40.120Z,59.13
2022-12-09T09:07:07.377Z,52.10
2022-12-09T09:09:34.839Z,52.13
2022-12-09T09:12:01.944Z,53.05
2022-12-09T09:14:29.265Z,46.20
2022-12-09T09:16:56.413Z,50.80
2022-12-09T09:19:26.170Z,50.50
2022-12-09T09:21:55.290Z,46.25
2022-12-09T09:24:24.637Z,54.97
2022-12-09T09:26:53.250Z,52.97
2022-12-09T09:29:22.796Z,48.30
2022-12-09T09:31:54.534Z,54.92
2022-12-09T09:34:23.003Z,49.67
2022-12-09T09:36:51.386Z,58.42
2022-12-09T09:39:20.003Z,57.53
2022-12-09T09:41:57.181Z,76.25
2022-12-09T09:44:33.804Z,80.90
2022-12-09T09:47:02.269Z,64.15
2022-12-09T09:49:37.411Z,48.33
2022-12-09T09:52:19.726Z,47.17
2022-12-09T09:54:48.124Z,67.25
2022-12-09T09:57:22.176Z,74.72
2022-12-09T10:00:09.742Z,63.08
2022-12-09T10:03:23.120Z,53.70
2022-12-09T10:05:54.992Z,60.45
2022-12-09T10:08:40.906Z,51.38
2022-12-09T10:11:21.233Z,44.53
2022-12-09T10:14:07.029Z,42.17
2022-12-09T10:16:51.686Z,44.35
2022-12-09T10:19:31.227Z,40.05
2022-12-09T10:22:00.096Z,44.72
2022-12-09T10:24:37.551Z,48.50
2022-12-09T10:27:29.130Z,45.05
2022-12-09T10:30:02.570Z,43.55
2022-12-09T10:32:33.975Z,51.50
2022-12-09T10:35:02.432Z,45.28
2022-12-09T10:37:36.167Z,48.53
2022-12-09T10:40:12.407Z,41.78
2022-12-09T10:43:08.820Z,49.95
2022-12-09T10:48:45.468Z,42.03
2022-12-09T10:51:21.618Z,46.92
2022-12-09T10:53:53.145Z,42.60
2022-12-09T10:56:23.700Z,44.10
2022-12-09T10:59:08.195Z,43.75
2022-12-09T11:01:55.732Z,35.72
2022-12-09T11:04:33.136Z,43.88
2022-12-09T11:07:05.404Z,42.50
2022-12-09T11:09:41.896Z,57.65
2022-12-09T11:12:31.022Z,40.42
2022-12-09T11:15:38.962Z,41.25
2022-12-09T11:18:19.411Z,36.67
2022-12-09T11:21:02.052Z,37.72
2022-12-09T11:23:29.954Z,38.10
2022-12-09T11:26:07.895Z,47.95
2022-12-09T11:28:37.864Z,46.67
2022-12-09T11:31:30.011Z,39.55
2022-12-09T11:34:05.452Z,39.83
2022-12-09T11:36:40.625Z,44.28
2022-12-09T11:39:29.513Z,40.63
2022-12-09T11:42:25.928Z,41.78
2022-12-09T11:45:16.642Z,39.97
2022-12-09T11:50:36.576Z,34.10
2022-12-09T11:53:12.236Z,35.20
2022-12-09T11:55:54.389Z,39.15
2022-12-09T11:58:27.951Z,30.45
2022-12-09T12:01:03.217Z,34.58
2022-12-09T12:03:44.893Z,33.80
2022-12-09T12:06:21.921Z,31.38
2022-12-09T12:08:59.356Z,31.05
2022-12-09T12:11:37.099Z,32.20
2022-12-09T12:14:10.234Z,32.03
2022-12-09T12:17:04.670Z,29.77
2022-12-09T12:19:35.345Z,31.80
2022-12-09T12:22:54.699Z,28.00
2022-12-09T12:25:36.741Z,24.52
2022-12-09T12:28:33.754Z,24.20
2022-12-09T12:31:06.595Z,25.88
2022-12-09T12:34:23.531Z,24.13
2022-12-09T12:36:56.227Z,20.50
2022-12-09T12:39:37.677Z,24.13
2022-12-09T12:42:23.719Z,27.00
2022-12-09T12:45:15.767Z,23.80
2022-12-09T12:48:20.943Z,26.30
2022-12-09T12:51:12.713Z,26.05
2022-12-09T12:54:04.389Z,23.85
2022-12-09T12:56:54.288Z,51.75
2022-12-09T12:59:36.170Z,22.92
2022-12-09T13:02:31.543Z,26.05
2022-12-09T13:05:03.751Z,23.40
2022-12-09T13:07:41.062Z,24.03
2022-12-09T13:10:16.317Z,25.90
2022-12-09T13:13:01.676Z,26.70
2022-12-09T13:15:44.304Z,29.95
2022-12-09T13:18:36.550Z,33.05
2022-12-09T13:21:05.783Z,37.47
2022-12-09T13:24:00.880Z,32.33
2022-12-09T13:26:41.802Z,36.05
2022-12-09T13:29:33.482Z,39.13
2022-12-09T13:32:25.091Z,44.55
2022-12-09T13:34:56.736Z,44.60
2022-12-09T13:37:41.987Z,49.65
2022-12-09T13:40:20.793Z,49.97
2022-12-09T13:42:56.660Z,47.75
2022-12-09T13:45:28.304Z,48.67
2022-12-09T13:48:20.898Z,51.08
2022-12-09T13:50:56.103Z,54.23
2022-12-09T13:53:47.000Z,49.97
2022-12-09T13:56:16.719Z,50.47
2022-12-09T13:59:11.404Z,44.25
2022-12-09T14:02:14.032Z,48.35
2022-12-09T14:05:07.789Z,51.97
2022-12-09T14:08:00.361Z,51.95
2022-12-09T14:10:37.742Z,46.25
2022-12-09T14:13:26.041Z,53.30
2022-12-09T14:16:16.120Z,48.45
2022-12-09T14:18:43.680Z,41.20
2022-12-09T14:21:19.333Z,50.60
2022-12-09T14:24:07.857Z,57.08
2022-12-09T14:26:42.417Z,54.08
2022-12-09T14:29:09.357Z,50.63
2022-12-09T14:31:55.960Z,50.30
2022-12-09T14:34:36.590Z,52.78
2022-12-09T14:37:17.273Z,55.60
2022-12-09T14:39:51.699Z,52.60
2022-12-09T14:42:41.777Z,51.80
2022-12-09T14:45:56.105Z,50.85
2022-12-09T14:48:30.510Z,52.95
2022-12-09T14:51:18.555Z,50.25
2022-12-09T14:53:56.312Z,55.08
2022-12-09T14:56:24.328Z,58.28
2022-12-09T14:58:56.706Z,59.17
2022-12-09T15:01:23.698Z,57.95
2022-12-09T15:03:56.440Z,55.72
2022-12-09T15:06:26.861Z,61.83
2022-12-09T15:08:56.093Z,49.25
2022-12-09T15:11:33.532Z,50.10
2022-12-09T15:14:33.130Z,45.70
2022-12-09T15:17:00.036Z,52.55
2022-12-09T15:19:59.066Z,49.72
2022-12-09T15:22:37.070Z,51.30
2022-12-09T15:25:04.559Z,51.13
2022-12-09T15:27:31.631Z,53.00
2022-12-09T15:29:58.571Z,57.70
2022-12-09T15:32:28.617Z,50.08
2022-12-09T15:34:55.858Z,50.83
2022-12-09T15:37:26.850Z,48.17
2022-12-09T15:40:09.132Z,53.83
2022-12-09T15:42:39.069Z,55.00
2022-12-09T15:45:22.148Z,55.60
2022-12-09T15:47:58.505Z,49.53
2022-12-09T15:50:51.284Z,51.95
2022-12-09T15:53:36.903Z,50.17
2022-12-09T15:56:12.660Z,48.88
2022-12-09T15:58:51.894Z,51.63
2022-12-09T16:01:28.266Z,55.20
2022-12-09T16:03:56.912Z,56.97
2022-12-09T16:06:27.335Z,49.35
2022-12-09T16:08:54.235Z,60.28
2022-12-09T16:11:41.652Z,58.53
2022-12-09T16:14:09.434Z,75.20
2022-12-09T16:17:03.049Z,63.33
2022-12-09T16:19:34.898Z,63.90
2022-12-09T16:22:25.987Z,60.40
2022-12-09T16:25:14.720Z,61.58
2022-12-09T16:27:48.470Z,55.33
2022-12-09T16:30:23.561Z,72.32
2022-12-09T16:32:53.980Z,64.00
2022-12-09T16:35:28.577Z,54.25
2022-12-09T16:37:58.262Z,54.13
2022-12-09T16:40:25.083Z,64.40
2022-12-09T16:42:54.371Z,56.45
2022-12-09T16:45:33.796Z,48.65
2022-12-09T16:48:01.296Z,48.05
2022-12-09T16:50:34.032Z,55.30
2022-12-09T16:53:01.058Z,46.10
2022-12-09T16:55:30.064Z,45.75
2022-12-09T16:57:58.310Z,48.08
2022-12-09T17:00:25.892Z,40.95
2022-12-09T17:03:01.635Z,40.83
2022-12-09T17:05:28.775Z,34.20
2022-12-09T17:07:55.877Z,33.80
2022-12-09T17:10:22.927Z,34.70
2022-12-09T17:12:52.742Z,32.55
2022-12-09T17:15:20.745Z,35.53
2022-12-09T17:17:49.019Z,32.78
2022-12-09T17:20:16.438Z,34.83
2022-12-09T17:22:43.352Z,33.45
2022-12-09T17:25:10.712Z,86.88
2022-12-09T17:27:37.943Z,124.15
2022-12-09T17:30:06.305Z,39.35
2022-12-09T17:32:33.870Z,39.75
2022-12-09T17:35:01.282Z,33.30
2022-12-09T17:37:28.093Z,32.13
2022-12-09T17:40:03.019Z,33.75
2022-12-09T17:42:30.409Z,36.15
2022-12-09T17:44:57.304Z,35.28
2022-12-09T17:47:24.219Z,37.10
2022-12-09T17:49:51.241Z,38.15
2022-12-09T17:52:18.064Z,37.60
2022-12-09T17:54:45.881Z,33.90
2022-12-09T17:57:12.743Z,36.33
2022-12-09T17:59:39.896Z,38.65
2022-12-09T18:02:06.955Z,44.10
2022-12-09T18:04:33.889Z,32.72
2022-12-09T18:07:00.694Z,35.55
2022-12-09T18:09:27.541Z,28.85
2022-12-09T18:11:54.359Z,31.95
2022-12-09T18:14:21.264Z,43.75
2022-12-09T18:16:49.222Z,40.90
2022-12-09T18:19:17.787Z,31.85
2022-12-09T18:21:45.171Z,31.33
2022-12-09T18:24:12.355Z,33.63
2022-12-09T18:26:41.967Z,39.88
2022-12-09T18:29:10.196Z,34.10
2022-12-09T18:31:37.242Z,41.75
2022-12-09T18:34:04.218Z,52.60
2022-12-09T18:36:31.618Z,42.70
2022-12-09T18:39:00.180Z,38.92
2022-12-09T18:41:29.467Z,34.47
2022-12-09T18:43:57.614Z,33.38
2022-12-09T18:46:30.783Z,28.42
2022-12-09T18:49:02.856Z,31.50
2022-12-09T18:51:31.285Z,28.53
2022-12-09T18:53:58.909Z,28.02
2022-12-09T18:56:26.285Z,27.58
2022-12-09T18:59:09.511Z,29.95
2022-12-09T19:01:40.411Z,25.52
2022-12-09T19:04:13.801Z,29.13
2022-12-09T19:09:11.138Z,28.90
2022-12-09T19:11:39.525Z,38.78
2022-12-09T19:14:07.450Z,32.22
2022-12-09T19:16:34.605Z,31.42
2022-12-09T19:19:08.747Z,28.00
2022-12-09T19:21:36.935Z,31.63
2022-12-09T19:24:03.889Z,29.60
2022-12-09T19:26:32.640Z,29.08
2022-12-09T19:29:01.998Z,32.55
2022-12-09T19:31:40.506Z,33.60
2022-12-09T19:34:08.440Z,32.42
2022-12-09T19:36:35.765Z,34.22
2022-12-09T19:39:04.003Z,44.13
2022-12-09T19:41:31.293Z,42.50
2022-12-09T19:43:59.668Z,40.83
2022-12-09T19:46:27.580Z,37.95
2022-12-09T19:48:55.049Z,32.33
2022-12-09T19:51:22.743Z,35.28
2022-12-09T19:53:49.972Z,33.80
2022-12-09T19:56:19.409Z,40.65
2022-12-09T19:58:47.153Z,36.20
2022-12-09T20:01:17.691Z,48.00
2022-12-09T20:03:46.216Z,52.85
2022-12-09T20:06:15.872Z,40.28
2022-12-09T20:08:43.508Z,50.33
2022-12-09T20:11:13.983Z,43.17
2022-12-09T20:13:41.222Z,39.15
2022-12-09T20:16:09.922Z,42.08
2022-12-09T20:18:37.244Z,39.85
2022-12-09T20:21:06.158Z,39.85
2022-12-09T20:23:34.890Z,38.33
2022-12-09T20:26:10.404Z,42.45
2022-12-09T20:28:38.361Z,37.58
2022-12-09T20:31:10.352Z,38.30
2022-12-09T20:33:38.114Z,36.10
2022-12-09T20:36:12.901Z,34.22
2022-12-09T20:38:40.265Z,37.75
2022-12-09T20:41:12.329Z,40.45
2022-12-09T20:43:43.530Z,39.73
2022-12-09T20:46:15.014Z,41.00
2022-12-09T20:48:43.126Z,33.30
2022-12-09T20:51:16.122Z,31.45
2022-12-09T20:53:44.008Z,34.10
2022-12-09T20:56:11.676Z,34.28
2022-12-09T20:58:40.629Z,32.00
2022-12-09T21:01:19.114Z,30.95
2022-12-09T21:03:47.741Z,29.58
2022-12-09T21:06:16.268Z,119.72
2022-12-09T21:08:43.577Z,91.30
2022-12-09T21:11:16.456Z,39.65
2022-12-09T21:16:25.582Z,58.20
2022-12-09T21:18:54.620Z,43.20
2022-12-09T21:21:23.349Z,47.88
2022-12-09T21:23:51.976Z,54.47
2022-12-09T21:26:19.595Z,54.55
2022-12-09T21:28:47.411Z,54.28
2022-12-09T21:31:19.897Z,42.88
2022-12-09T21:33:48.193Z,37.40
2022-12-09T21:36:19.886Z,35.75
2022-12-09T21:38:46.943Z,42.20
2022-12-09T21:41:16.495Z,46.47
2022-12-09T21:43:44.501Z,43.33
2022-12-09T21:46:14.470Z,39.08
2022-12-09T21:48:41.866Z,42.35
2022-12-09T21:51:10.420Z,39.25
2022-12-09T21:53:37.531Z,53.08
2022-12-09T21:56:07.002Z,55.17
2022-12-09T21:58:34.805Z,38.70
2022-12-09T22:01:12.729Z,53.85
2022-12-09T22:03:40.488Z,51.00
2022-12-09T22:06:08.099Z,47.90
2022-12-09T22:08:35.895Z,52.42
2022-12-09T22:11:11.027Z,59.67
2022-12-09T22:13:39.691Z,53.72
2022-12-09T22:16:11.713Z,44.47
2022-12-09T22:18:39.659Z,44.17
2022-12-09T22:21:24.760Z,35.90
2022-12-09T22:23:54.439Z,36.90
2022-12-09T22:26:22.243Z,27.73
2022-12-09T22:28:50.361Z,30.80
2022-12-09T22:31:21.324Z,41.08
2022-12-09T22:33:49.249Z,53.53
2022-12-09T22:36:16.776Z,69.90
2022-12-09T22:38:44.028Z,43.45
2022-12-09T22:41:19.838Z,46.35
2022-12-09T22:43:48.907Z,48.88
2022-12-09T22:46:18.925Z,39.63
2022-12-09T22:48:45.977Z,42.45
2022-12-09T22:51:16.323Z,45.58
2022-12-09T22:53:43.780Z,39.17
2022-12-09T22:56:11.607Z,36.35
2022-12-09T22:58:39.170Z,39.92
2022-12-09T23:01:16.964Z,38.10
2022-12-09T23:03:44.085Z,34.45
2022-12-09T23:06:11.449Z,37.95
2022-12-09T23:08:39.770Z,37.97
2022-12-09T23:11:14.029Z,36.88
2022-12-09T23:13:41.553Z,47.55
2022-12-09T23:16:12.553Z,46.78
2022-12-09T23:18:40.109Z,47.40
2022-12-09T23:21:10.146Z,79.53
2022-12-09T23:23:37.557Z,90.38
2022-12-09T23:26:12.530Z,129.40
2022-12-09T23:28:41.426Z,53.38
2022-12-09T23:31:10.291Z,60.97
2022-12-09T23:33:38.255Z,46.33
2022-12-09T23:36:13.410Z,44.20
2022-12-09T23:39:12.019Z,61.95
2022-12-09T23:41:40.275Z,66.90
2022-12-09T23:44:09.863Z,84.13
2022-12-09T23:46:37.172Z,108.45
2022-12-09T23:49:05.154Z,112.32
2022-12-09T23:51:33.485Z,67.43
2022-12-09T23:54:05.409Z,56.38
2022-12-09T23:56:36.562Z,58.37
2022-12-09T23:59:05.991Z,49.22
